sensor_id;sensor_type;location;lat;lon;timestamp;temperature;humidity
65582;DHT22;52231;40.090;18.348;2023-04-03T00:02:08;11.20;86.00
65582;DHT22;52231;40.090;18.348;2023-04-03T00:04:37;11.20;86.10
65582;DHT22;52231;40.090;18.348;2023-04-03T00:07:06;11.20;86.20
65582;DHT22;52231;40.090;18.348;2023-04-03T00:09:34;11.20;86.40
65582;DHT22;52231;40.090;18.348;2023-04-03T00:12:03;11.20;86.70
65582;DHT22;52231;40.090;18.348;2023-04-03T00:14:31;11.10;86.90
65582;DHT22;52231;40.090;18.348;2023-04-03T00:16:59;11.10;87.10
65582;DHT22;52231;40.090;18.348;2023-04-03T00:19:28;11.10;87.10
65582;DHT22;52231;40.090;18.348;2023-04-03T00:21:56;11.00;87.10
65582;DHT22;52231;40.090;18.348;2023-04-03T00:24:24;11.00;87.10
65582;DHT22;52231;40.090;18.348;2023-04-03T00:26:53;11.00;87.20
65582;DHT22;52231;40.090;18.348;2023-04-03T00:29:21;10.90;87.30
65582;DHT22;52231;40.090;18.348;2023-04-03T00:31:49;10.90;87.40
65582;DHT22;52231;40.090;18.348;2023-04-03T00:34:18;10.90;87.40
65582;DHT22;52231;40.090;18.348;2023-04-03T00:36:47;10.90;87.50
65582;DHT22;52231;40.090;18.348;2023-04-03T00:39:15;10.90;87.50
65582;DHT22;52231;40.090;18.348;2023-04-03T00:41:44;10.90;87.60
65582;DHT22;52231;40.090;18.348;2023-04-03T00:47:10;11.00;87.60
65582;DHT22;52231;40.090;18.348;2023-04-03T00:49:39;11.00;87.60
65582;DHT22;52231;40.090;18.348;2023-04-03T00:52:11;11.00;87.60
65582;DHT22;52231;40.090;18.348;2023-04-03T00:54:44;11.10;87.70
65582;DHT22;52231;40.090;18.348;2023-04-03T00:57:15;11.10;87.70
65582;DHT22;52231;40.090;18.348;2023-04-03T00:59:49;11.10;87.70
65582;DHT22;52231;40.090;18.348;2023-04-03T01:02:19;11.10;87.70
65582;DHT22;52231;40.090;18.348;2023-04-03T01:04:49;11.20;87.80
65582;DHT22;52231;40.090;18.348;2023-04-03T01:09:47;11.30;87.90
65582;DHT22;52231;40.090;18.348;2023-04-03T01:12:25;11.30;87.90
65582;DHT22;52231;40.090;18.348;2023-04-03T01:15:00;11.40;87.90
65582;DHT22;52231;40.090;18.348;2023-04-03T01:17:33;11.40;87.90
65582;DHT22;52231;40.090;18.348;2023-04-03T01:22:31;11.50;88.00
65582;DHT22;52231;40.090;18.348;2023-04-03T01:25:04;11.50;88.00
65582;DHT22;52231;40.090;18.348;2023-04-03T01:27:32;11.60;88.10
65582;DHT22;52231;40.090;18.348;2023-04-03T01:30:07;11.60;88.20
65582;DHT22;52231;40.090;18.348;2023-04-03T01:32:36;11.70;88.30
65582;DHT22;52231;40.090;18.348;2023-04-03T01:35:07;11.80;88.40
65582;DHT22;52231;40.090;18.348;2023-04-03T01:37:36;11.80;88.50
65582;DHT22;52231;40.090;18.348;2023-04-03T01:40:05;11.80;88.50
65582;DHT22;52231;40.090;18.348;2023-04-03T01:42:35;11.80;88.50
65582;DHT22;52231;40.090;18.348;2023-04-03T01:45:03;11.80;88.50
65582;DHT22;52231;40.090;18.348;2023-04-03T01:47:32;11.80;88.50
65582;DHT22;52231;40.090;18.348;2023-04-03T01:50:01;11.90;88.50
65582;DHT22;52231;40.090;18.348;2023-04-03T01:52:34;11.90;88.50
65582;DHT22;52231;40.090;18.348;2023-04-03T01:55:03;11.90;88.50
65582;DHT22;52231;40.090;18.348;2023-04-03T01:57:32;11.90;88.50
65582;DHT22;52231;40.090;18.348;2023-04-03T02:00:00;12.00;88.60
65582;DHT22;52231;40.090;18.348;2023-04-03T02:02:39;12.00;88.60
65582;DHT22;52231;40.090;18.348;2023-04-03T02:05:10;12.10;88.80
65582;DHT22;52231;40.090;18.348;2023-04-03T02:07:38;12.20;88.90
65582;DHT22;52231;40.090;18.348;2023-04-03T02:10:09;12.30;89.00
65582;DHT22;52231;40.090;18.348;2023-04-03T02:12:37;12.30;89.10
65582;DHT22;52231;40.090;18.348;2023-04-03T02:15:06;12.30;89.10
65582;DHT22;52231;40.090;18.348;2023-04-03T02:17:36;12.30;89.10
65582;DHT22;52231;40.090;18.348;2023-04-03T02:20:05;12.30;89.20
65582;DHT22;52231;40.090;18.348;2023-04-03T02:22:34;12.40;89.30
65582;DHT22;52231;40.090;18.348;2023-04-03T02:25:03;12.40;89.40
65582;DHT22;52231;40.090;18.348;2023-04-03T02:27:31;12.40;89.40
65582;DHT22;52231;40.090;18.348;2023-04-03T02:29:59;12.50;89.50
65582;DHT22;52231;40.090;18.348;2023-04-03T02:32:29;12.50;89.50
65582;DHT22;52231;40.090;18.348;2023-04-03T02:34:57;12.40;89.50
65582;DHT22;52231;40.090;18.348;2023-04-03T02:37:26;12.50;89.50
65582;DHT22;52231;40.090;18.348;2023-04-03T02:39:54;12.50;89.50
65582;DHT22;52231;40.090;18.348;2023-04-03T02:42:22;12.50;89.50
65582;DHT22;52231;40.090;18.348;2023-04-03T02:44:52;12.50;89.50
65582;DHT22;52231;40.090;18.348;2023-04-03T02:47:20;12.50;89.60
65582;DHT22;52231;40.090;18.348;2023-04-03T02:49:48;12.50;89.60
65582;DHT22;52231;40.090;18.348;2023-04-03T02:52:17;12.40;89.70
65582;DHT22;52231;40.090;18.348;2023-04-03T02:54:46;12.50;89.70
65582;DHT22;52231;40.090;18.348;2023-04-03T02:57:14;12.50;89.80
65582;DHT22;52231;40.090;18.348;2023-04-03T02:59:43;12.50;89.80
65582;DHT22;52231;40.090;18.348;2023-04-03T03:02:12;12.50;89.80
65582;DHT22;52231;40.090;18.348;2023-04-03T03:04:41;12.50;89.80
65582;DHT22;52231;40.090;18.348;2023-04-03T03:07:10;12.50;89.70
65582;DHT22;52231;40.090;18.348;2023-04-03T03:09:38;12.40;89.70
65582;DHT22;52231;40.090;18.348;2023-04-03T03:12:07;12.40;89.60
65582;DHT22;52231;40.090;18.348;2023-04-03T03:14:36;12.40;89.60
65582;DHT22;52231;40.090;18.348;2023-04-03T03:17:05;12.40;89.60
65582;DHT22;52231;40.090;18.348;2023-04-03T03:19:33;12.30;89.60
65582;DHT22;52231;40.090;18.348;2023-04-03T03:22:02;12.30;89.60
65582;DHT22;52231;40.090;18.348;2023-04-03T03:24:32;12.30;89.60
65582;DHT22;52231;40.090;18.348;2023-04-03T03:27:00;12.30;89.60
65582;DHT22;52231;40.090;18.348;2023-04-03T03:29:29;12.20;89.60
65582;DHT22;52231;40.090;18.348;2023-04-03T03:31:57;12.20;89.60
65582;DHT22;52231;40.090;18.348;2023-04-03T03:34:25;12.20;89.60
65582;DHT22;52231;40.090;18.348;2023-04-03T03:36:54;12.20;89.70
65582;DHT22;52231;40.090;18.348;2023-04-03T03:39:23;12.20;89.70
65582;DHT22;52231;40.090;18.348;2023-04-03T03:41:52;12.10;89.70
65582;DHT22;52231;40.090;18.348;2023-04-03T03:44:21;12.10;89.70
65582;DHT22;52231;40.090;18.348;2023-04-03T03:46:50;12.10;89.80
65582;DHT22;52231;40.090;18.348;2023-04-03T03:49:18;12.00;89.80
65582;DHT22;52231;40.090;18.348;2023-04-03T03:51:47;12.00;89.80
65582;DHT22;52231;40.090;18.348;2023-04-03T03:54:15;12.00;89.80
65582;DHT22;52231;40.090;18.348;2023-04-03T03:56:44;12.00;89.80
65582;DHT22;52231;40.090;18.348;2023-04-03T03:59:12;11.90;89.80
65582;DHT22;52231;40.090;18.348;2023-04-03T04:01:42;11.90;89.70
65582;DHT22;52231;40.090;18.348;2023-04-03T04:04:10;11.90;89.80
65582;DHT22;52231;40.090;18.348;2023-04-03T04:06:38;11.80;89.70
65582;DHT22;52231;40.090;18.348;2023-04-03T04:09:09;11.80;89.70
65582;DHT22;52231;40.090;18.348;2023-04-03T04:11:38;11.80;89.70
65582;DHT22;52231;40.090;18.348;2023-04-03T04:14:09;11.80;89.70
65582;DHT22;52231;40.090;18.348;2023-04-03T04:16:41;11.80;89.60
65582;DHT22;52231;40.090;18.348;2023-04-03T04:19:15;11.80;89.60
65582;DHT22;52231;40.090;18.348;2023-04-03T04:21:45;11.70;89.50
65582;DHT22;52231;40.090;18.348;2023-04-03T04:24:13;11.60;89.30
65582;DHT22;52231;40.090;18.348;2023-04-03T04:26:42;11.60;89.20
65582;DHT22;52231;40.090;18.348;2023-04-03T04:29:13;11.60;89.30
65582;DHT22;52231;40.090;18.348;2023-04-03T04:31:41;11.60;89.40
65582;DHT22;52231;40.090;18.348;2023-04-03T04:34:10;11.60;89.40
65582;DHT22;52231;40.090;18.348;2023-04-03T04:36:39;11.50;89.50
65582;DHT22;52231;40.090;18.348;2023-04-03T04:39:08;11.50;89.50
65582;DHT22;52231;40.090;18.348;2023-04-03T04:41:37;11.50;89.60
65582;DHT22;52231;40.090;18.348;2023-04-03T04:44:06;11.50;89.60
65582;DHT22;52231;40.090;18.348;2023-04-03T04:46:36;11.50;89.70
65582;DHT22;52231;40.090;18.348;2023-04-03T04:49:05;11.50;89.70
65582;DHT22;52231;40.090;18.348;2023-04-03T04:51:34;11.50;89.80
65582;DHT22;52231;40.090;18.348;2023-04-03T04:54:09;11.50;89.80
65582;DHT22;52231;40.090;18.348;2023-04-03T04:56:38;11.50;89.90
65582;DHT22;52231;40.090;18.348;2023-04-03T04:59:07;11.60;89.90
65582;DHT22;52231;40.090;18.348;2023-04-03T05:01:35;11.60;90.00
65582;DHT22;52231;40.090;18.348;2023-04-03T05:04:10;11.50;90.00
65582;DHT22;52231;40.090;18.348;2023-04-03T05:06:45;11.50;90.10
65582;DHT22;52231;40.090;18.348;2023-04-03T05:09:18;11.60;90.20
65582;DHT22;52231;40.090;18.348;2023-04-03T05:11:49;11.60;90.20
65582;DHT22;52231;40.090;18.348;2023-04-03T05:14:20;11.60;90.20
65582;DHT22;52231;40.090;18.348;2023-04-03T05:16:49;11.60;90.30
65582;DHT22;52231;40.090;18.348;2023-04-03T05:19:24;11.60;90.40
65582;DHT22;52231;40.090;18.348;2023-04-03T05:21:54;11.60;90.40
65582;DHT22;52231;40.090;18.348;2023-04-03T05:24:37;11.70;90.50
65582;DHT22;52231;40.090;18.348;2023-04-03T05:27:06;11.70;90.50
65582;DHT22;52231;40.090;18.348;2023-04-03T05:29:39;11.70;90.50
65582;DHT22;52231;40.090;18.348;2023-04-03T05:32:09;11.80;90.60
65582;DHT22;52231;40.090;18.348;2023-04-03T05:34:37;11.80;90.60
65582;DHT22;52231;40.090;18.348;2023-04-03T05:37:06;11.80;90.60
65582;DHT22;52231;40.090;18.348;2023-04-03T05:39:35;11.80;90.70
65582;DHT22;52231;40.090;18.348;2023-04-03T05:42:06;11.80;90.70
65582;DHT22;52231;40.090;18.348;2023-04-03T05:44:38;11.80;90.70
65582;DHT22;52231;40.090;18.348;2023-04-03T05:47:07;11.80;90.80
65582;DHT22;52231;40.090;18.348;2023-04-03T05:49:36;11.80;90.80
65582;DHT22;52231;40.090;18.348;2023-04-03T05:52:21;11.80;90.80
65582;DHT22;52231;40.090;18.348;2023-04-03T05:54:54;11.80;90.80
65582;DHT22;52231;40.090;18.348;2023-04-03T05:57:27;11.80;90.80
65582;DHT22;52231;40.090;18.348;2023-04-03T05:59:56;11.90;90.90
65582;DHT22;52231;40.090;18.348;2023-04-03T06:02:25;11.90;90.90
65582;DHT22;52231;40.090;18.348;2023-04-03T06:04:56;11.90;90.90
65582;DHT22;52231;40.090;18.348;2023-04-03T06:07:26;11.90;90.90
65582;DHT22;52231;40.090;18.348;2023-04-03T06:10:00;11.90;90.90
65582;DHT22;52231;40.090;18.348;2023-04-03T06:12:29;12.00;90.90
65582;DHT22;52231;40.090;18.348;2023-04-03T06:15:01;12.00;90.90
65582;DHT22;52231;40.090;18.348;2023-04-03T06:17:29;12.00;90.90
65582;DHT22;52231;40.090;18.348;2023-04-03T06:19:58;12.00;90.90
65582;DHT22;52231;40.090;18.348;2023-04-03T06:22:30;12.00;90.90
65582;DHT22;52231;40.090;18.348;2023-04-03T06:24:59;11.90;90.90
65582;DHT22;52231;40.090;18.348;2023-04-03T06:27:27;11.90;90.90
65582;DHT22;52231;40.090;18.348;2023-04-03T06:29:55;11.90;90.90
65582;DHT22;52231;40.090;18.348;2023-04-03T06:32:23;11.90;90.90
65582;DHT22;52231;40.090;18.348;2023-04-03T06:34:52;11.80;90.90
65582;DHT22;52231;40.090;18.348;2023-04-03T06:37:22;11.80;90.90
65582;DHT22;52231;40.090;18.348;2023-04-03T06:39:54;11.80;91.00
65582;DHT22;52231;40.090;18.348;2023-04-03T06:42:23;11.80;91.00
65582;DHT22;52231;40.090;18.348;2023-04-03T06:44:58;11.80;91.00
65582;DHT22;52231;40.090;18.348;2023-04-03T06:47:28;11.80;91.10
65582;DHT22;52231;40.090;18.348;2023-04-03T06:49:56;11.80;91.10
65582;DHT22;52231;40.090;18.348;2023-04-03T06:52:26;11.80;91.10
65582;DHT22;52231;40.090;18.348;2023-04-03T06:54:59;11.80;91.10
65582;DHT22;52231;40.090;18.348;2023-04-03T06:57:28;11.80;91.10
65582;DHT22;52231;40.090;18.348;2023-04-03T06:59:56;11.80;91.10
65582;DHT22;52231;40.090;18.348;2023-04-03T07:02:25;11.80;91.20
65582;DHT22;52231;40.090;18.348;2023-04-03T07:04:53;11.80;91.20
65582;DHT22;52231;40.090;18.348;2023-04-03T07:07:23;11.80;91.20
65582;DHT22;52231;40.090;18.348;2023-04-03T07:09:51;11.80;91.20
65582;DHT22;52231;40.090;18.348;2023-04-03T07:12:20;11.90;91.30
65582;DHT22;52231;40.090;18.348;2023-04-03T07:14:48;11.90;91.20
65582;DHT22;52231;40.090;18.348;2023-04-03T07:17:16;11.90;91.20
65582;DHT22;52231;40.090;18.348;2023-04-03T07:19:45;11.90;91.30
65582;DHT22;52231;40.090;18.348;2023-04-03T07:22:14;11.90;91.20
65582;DHT22;52231;40.090;18.348;2023-04-03T07:24:42;12.00;91.20
65582;DHT22;52231;40.090;18.348;2023-04-03T07:27:13;12.00;91.20
65582;DHT22;52231;40.090;18.348;2023-04-03T07:29:53;12.00;91.20
65582;DHT22;52231;40.090;18.348;2023-04-03T07:32:23;12.00;91.20
65582;DHT22;52231;40.090;18.348;2023-04-03T07:34:51;12.00;91.20
65582;DHT22;52231;40.090;18.348;2023-04-03T07:37:19;11.90;91.00
65582;DHT22;52231;40.090;18.348;2023-04-03T07:39:48;11.80;90.90
65582;DHT22;52231;40.090;18.348;2023-04-03T07:42:17;11.80;90.80
65582;DHT22;52231;40.090;18.348;2023-04-03T07:44:49;11.70;90.60
65582;DHT22;52231;40.090;18.348;2023-04-03T07:47:17;11.60;90.50
65582;DHT22;52231;40.090;18.348;2023-04-03T07:49:46;11.50;90.50
65582;DHT22;52231;40.090;18.348;2023-04-03T07:52:15;11.50;90.50
65582;DHT22;52231;40.090;18.348;2023-04-03T07:54:43;11.60;90.50
65582;DHT22;52231;40.090;18.348;2023-04-03T07:57:15;11.50;90.50
65582;DHT22;52231;40.090;18.348;2023-04-03T07:59:43;11.50;90.60
65582;DHT22;52231;40.090;18.348;2023-04-03T08:02:12;11.40;90.60
65582;DHT22;52231;40.090;18.348;2023-04-03T08:05:00;11.40;90.50
65582;DHT22;52231;40.090;18.348;2023-04-03T08:07:33;11.30;90.60
65582;DHT22;52231;40.090;18.348;2023-04-03T08:10:10;11.30;90.70
65582;DHT22;52231;40.090;18.348;2023-04-03T08:12:55;11.30;90.80
65582;DHT22;52231;40.090;18.348;2023-04-03T08:15:54;11.20;90.90
65582;DHT22;52231;40.090;18.348;2023-04-03T08:18:39;11.20;91.00
65582;DHT22;52231;40.090;18.348;2023-04-03T08:21:11;11.20;91.10
65582;DHT22;52231;40.090;18.348;2023-04-03T08:23:48;11.30;91.20
65582;DHT22;52231;40.090;18.348;2023-04-03T08:26:20;11.30;91.30
65582;DHT22;52231;40.090;18.348;2023-04-03T08:28:49;11.30;91.30
65582;DHT22;52231;40.090;18.348;2023-04-03T08:31:20;11.30;91.40
65582;DHT22;52231;40.090;18.348;2023-04-03T08:33:57;11.30;91.40
65582;DHT22;52231;40.090;18.348;2023-04-03T08:36:26;11.40;91.50
65582;DHT22;52231;40.090;18.348;2023-04-03T08:38:55;11.40;91.60
65582;DHT22;52231;40.090;18.348;2023-04-03T08:41:34;11.50;91.60
65582;DHT22;52231;40.090;18.348;2023-04-03T08:44:25;11.50;91.60
65582;DHT22;52231;40.090;18.348;2023-04-03T08:49:43;11.60;91.70
65582;DHT22;52231;40.090;18.348;2023-04-03T08:52:18;11.80;91.70
65582;DHT22;52231;40.090;18.348;2023-04-03T08:54:58;11.80;91.70
65582;DHT22;52231;40.090;18.348;2023-04-03T08:57:40;11.80;91.70
65582;DHT22;52231;40.090;18.348;2023-04-03T09:02:47;11.80;91.60
65582;DHT22;52231;40.090;18.348;2023-04-03T09:05:39;11.80;91.50
65582;DHT22;52231;40.090;18.348;2023-04-03T09:08:29;11.70;91.40
65582;DHT22;52231;40.090;18.348;2023-04-03T09:14:02;11.80;91.30
65582;DHT22;52231;40.090;18.348;2023-04-03T09:19:54;12.10;91.10
65582;DHT22;52231;40.090;18.348;2023-04-03T09:22:27;12.10;91.00
65582;DHT22;52231;40.090;18.348;2023-04-03T09:28:03;11.90;90.90
65582;DHT22;52231;40.090;18.348;2023-04-03T09:30:38;11.90;90.80
65582;DHT22;52231;40.090;18.348;2023-04-03T09:33:07;11.80;90.90
65582;DHT22;52231;40.090;18.348;2023-04-03T09:35:37;11.90;90.90
65582;DHT22;52231;40.090;18.348;2023-04-03T09:40:44;11.90;90.90
65582;DHT22;52231;40.090;18.348;2023-04-03T09:43:25;12.00;90.80
65582;DHT22;52231;40.090;18.348;2023-04-03T09:45:56;12.00;90.70
65582;DHT22;52231;40.090;18.348;2023-04-03T09:48:26;12.00;90.70
65582;DHT22;52231;40.090;18.348;2023-04-03T09:50:58;12.00;90.60
65582;DHT22;52231;40.090;18.348;2023-04-03T09:56:00;11.90;90.50
65582;DHT22;52231;40.090;18.348;2023-04-03T09:58:39;11.90;90.50
65582;DHT22;52231;40.090;18.348;2023-04-03T10:01:37;12.00;90.50
65582;DHT22;52231;40.090;18.348;2023-04-03T10:09:27;12.30;90.50
65582;DHT22;52231;40.090;18.348;2023-04-03T10:12:09;12.60;90.60
65582;DHT22;52231;40.090;18.348;2023-04-03T10:14:56;12.90;90.50
65582;DHT22;52231;40.090;18.348;2023-04-03T10:20:37;13.80;89.60
65582;DHT22;52231;40.090;18.348;2023-04-03T10:23:28;14.40;88.50
65582;DHT22;52231;40.090;18.348;2023-04-03T10:26:15;14.80;87.00
65582;DHT22;52231;40.090;18.348;2023-04-03T10:32:09;15.70;85.00
65582;DHT22;52231;40.090;18.348;2023-04-03T10:34:43;16.10;83.60
65582;DHT22;52231;40.090;18.348;2023-04-03T10:37:44;16.10;82.60
65582;DHT22;52231;40.090;18.348;2023-04-03T10:43:33;16.00;82.40
65582;DHT22;52231;40.090;18.348;2023-04-03T10:46:15;15.80;81.90
65582;DHT22;52231;40.090;18.348;2023-04-03T10:54:52;15.50;81.50
65582;DHT22;52231;40.090;18.348;2023-04-03T10:57:24;15.50;82.10
65582;DHT22;52231;40.090;18.348;2023-04-03T10:59:57;15.60;81.70
65582;DHT22;52231;40.090;18.348;2023-04-03T11:02:37;15.80;82.20
65582;DHT22;52231;40.090;18.348;2023-04-03T11:05:28;15.90;81.40
65582;DHT22;52231;40.090;18.348;2023-04-03T11:08:04;16.30;80.90
65582;DHT22;52231;40.090;18.348;2023-04-03T11:10:42;16.40;78.90
65582;DHT22;52231;40.090;18.348;2023-04-03T11:13:22;16.30;78.50
65582;DHT22;52231;40.090;18.348;2023-04-03T11:15:53;16.50;78.10
65582;DHT22;52231;40.090;18.348;2023-04-03T11:18:31;16.50;77.20
65582;DHT22;52231;40.090;18.348;2023-04-03T11:21:24;16.40;77.50
65582;DHT22;52231;40.090;18.348;2023-04-03T11:23:57;16.20;78.20
65582;DHT22;52231;40.090;18.348;2023-04-03T11:26:31;15.60;78.70
65582;DHT22;52231;40.090;18.348;2023-04-03T11:29:08;15.20;80.40
65582;DHT22;52231;40.090;18.348;2023-04-03T11:34:39;14.90;81.90
65582;DHT22;52231;40.090;18.348;2023-04-03T11:37:33;15.10;82.00
65582;DHT22;52231;40.090;18.348;2023-04-03T11:42:48;14.80;81.60
65582;DHT22;52231;40.090;18.348;2023-04-03T11:48:04;14.50;84.50
65582;DHT22;52231;40.090;18.348;2023-04-03T11:50:45;14.70;84.70
65582;DHT22;52231;40.090;18.348;2023-04-03T11:55:56;14.40;84.40
65582;DHT22;52231;40.090;18.348;2023-04-03T11:58:27;14.00;85.50
65582;DHT22;52231;40.090;18.348;2023-04-03T12:01:00;13.80;86.20
65582;DHT22;52231;40.090;18.348;2023-04-03T12:14:04;13.80;87.20
65582;DHT22;52231;40.090;18.348;2023-04-03T12:24:29;13.50;87.40
65582;DHT22;52231;40.090;18.348;2023-04-03T12:41:37;12.50;87.80
65582;DHT22;52231;40.090;18.348;2023-04-03T12:44:25;12.60;88.00
65582;DHT22;52231;40.090;18.348;2023-04-03T12:47:00;12.50;88.20
65582;DHT22;52231;40.090;18.348;2023-04-03T12:49:41;12.50;88.30
65582;DHT22;52231;40.090;18.348;2023-04-03T12:55:20;12.70;88.50
65582;DHT22;52231;40.090;18.348;2023-04-03T12:57:52;12.60;88.20
65582;DHT22;52231;40.090;18.348;2023-04-03T13:00:32;12.60;88.10
65582;DHT22;52231;40.090;18.348;2023-04-03T13:03:06;12.60;88.20
65582;DHT22;52231;40.090;18.348;2023-04-03T13:05:47;12.60;88.10
65582;DHT22;52231;40.090;18.348;2023-04-03T13:08:18;12.60;88.10
65582;DHT22;52231;40.090;18.348;2023-04-03T13:11:12;12.70;88.10
65582;DHT22;52231;40.090;18.348;2023-04-03T13:13:54;12.80;88.00
65582;DHT22;52231;40.090;18.348;2023-04-03T13:16:29;12.80;88.00
65582;DHT22;52231;40.090;18.348;2023-04-03T13:18:58;12.80;87.90
65582;DHT22;52231;40.090;18.348;2023-04-03T13:21:31;12.70;87.60
65582;DHT22;52231;40.090;18.348;2023-04-03T13:24:03;12.60;87.60
65582;DHT22;52231;40.090;18.348;2023-04-03T13:26:38;12.50;87.60
65582;DHT22;52231;40.090;18.348;2023-04-03T13:29:07;12.50;87.70
65582;DHT22;52231;40.090;18.348;2023-04-03T13:31:53;12.40;87.70
65582;DHT22;52231;40.090;18.348;2023-04-03T13:34:35;12.30;87.70
65582;DHT22;52231;40.090;18.348;2023-04-03T13:37:04;12.30;87.70
65582;DHT22;52231;40.090;18.348;2023-04-03T13:39:38;12.30;87.70
65582;DHT22;52231;40.090;18.348;2023-04-03T13:42:26;12.40;87.80
65582;DHT22;52231;40.090;18.348;2023-04-03T13:45:22;12.40;87.70
65582;DHT22;52231;40.090;18.348;2023-04-03T13:53:24;12.40;88.00
65582;DHT22;52231;40.090;18.348;2023-04-03T13:56:09;12.40;88.20
65582;DHT22;52231;40.090;18.348;2023-04-03T14:07:15;12.20;88.40
65582;DHT22;52231;40.090;18.348;2023-04-03T14:09:44;12.20;88.50
65582;DHT22;52231;40.090;18.348;2023-04-03T14:12:30;12.10;88.50
65582;DHT22;52231;40.090;18.348;2023-04-03T14:15:01;12.10;88.50
65582;DHT22;52231;40.090;18.348;2023-04-03T14:17:30;12.00;88.50
65582;DHT22;52231;40.090;18.348;2023-04-03T14:19:59;12.00;88.40
65582;DHT22;52231;40.090;18.348;2023-04-03T14:22:32;11.90;88.50
65582;DHT22;52231;40.090;18.348;2023-04-03T14:25:01;11.90;88.70
65582;DHT22;52231;40.090;18.348;2023-04-03T14:27:41;11.90;88.80
65582;DHT22;52231;40.090;18.348;2023-04-03T14:30:27;11.80;89.00
65582;DHT22;52231;40.090;18.348;2023-04-03T14:32:57;11.80;89.00
65582;DHT22;52231;40.090;18.348;2023-04-03T14:35:31;11.80;89.00
65582;DHT22;52231;40.090;18.348;2023-04-03T14:38:00;11.70;89.10
65582;DHT22;52231;40.090;18.348;2023-04-03T14:40:28;11.70;89.20
65582;DHT22;52231;40.090;18.348;2023-04-03T14:42:59;11.80;89.40
65582;DHT22;52231;40.090;18.348;2023-04-03T14:45:28;11.80;89.50
65582;DHT22;52231;40.090;18.348;2023-04-03T14:47:56;11.90;89.50
65582;DHT22;52231;40.090;18.348;2023-04-03T14:50:27;11.80;89.40
65582;DHT22;52231;40.090;18.348;2023-04-03T14:52:59;11.70;89.10
65582;DHT22;52231;40.090;18.348;2023-04-03T14:55:29;11.60;89.20
65582;DHT22;52231;40.090;18.348;2023-04-03T14:58:01;11.60;89.20
65582;DHT22;52231;40.090;18.348;2023-04-03T15:00:30;11.60;89.20
65582;DHT22;52231;40.090;18.348;2023-04-03T15:02:58;11.60;89.20
65582;DHT22;52231;40.090;18.348;2023-04-03T15:05:30;11.60;89.30
65582;DHT22;52231;40.090;18.348;2023-04-03T15:07:58;11.70;89.40
65582;DHT22;52231;40.090;18.348;2023-04-03T15:10:30;11.80;89.40
65582;DHT22;52231;40.090;18.348;2023-04-03T15:12:58;11.80;89.50
65582;DHT22;52231;40.090;18.348;2023-04-03T15:15:28;11.90;89.50
65582;DHT22;52231;40.090;18.348;2023-04-03T15:17:59;12.00;89.60
65582;DHT22;52231;40.090;18.348;2023-04-03T15:20:29;12.10;89.60
65582;DHT22;52231;40.090;18.348;2023-04-03T15:23:02;12.20;89.60
65582;DHT22;52231;40.090;18.348;2023-04-03T15:25:33;12.10;89.30
65582;DHT22;52231;40.090;18.348;2023-04-03T15:28:01;12.20;89.40
65582;DHT22;52231;40.090;18.348;2023-04-03T15:30:36;12.20;89.30
65582;DHT22;52231;40.090;18.348;2023-04-03T15:33:07;12.20;89.30
65582;DHT22;52231;40.090;18.348;2023-04-03T15:35:45;12.20;89.30
65582;DHT22;52231;40.090;18.348;2023-04-03T15:38:14;12.10;89.40
65582;DHT22;52231;40.090;18.348;2023-04-03T15:40:43;12.10;89.50
65582;DHT22;52231;40.090;18.348;2023-04-03T15:43:18;12.00;89.60
65582;DHT22;52231;40.090;18.348;2023-04-03T15:45:50;12.00;89.70
65582;DHT22;52231;40.090;18.348;2023-04-03T15:48:19;12.00;89.80
65582;DHT22;52231;40.090;18.348;2023-04-03T15:50:48;11.90;89.70
65582;DHT22;52231;40.090;18.348;2023-04-03T15:53:20;11.90;89.80
65582;DHT22;52231;40.090;18.348;2023-04-03T15:55:48;11.80;90.00
65582;DHT22;52231;40.090;18.348;2023-04-03T15:58:19;11.80;90.30
65582;DHT22;52231;40.090;18.348;2023-04-03T16:00:51;11.80;90.40
65582;DHT22;52231;40.090;18.348;2023-04-03T16:03:21;11.60;90.30
65582;DHT22;52231;40.090;18.348;2023-04-03T16:05:52;11.60;90.30
65582;DHT22;52231;40.090;18.348;2023-04-03T16:08:24;11.50;90.30
65582;DHT22;52231;40.090;18.348;2023-04-03T16:10:57;11.40;90.30
65582;DHT22;52231;40.090;18.348;2023-04-03T16:13:30;11.40;90.30
65582;DHT22;52231;40.090;18.348;2023-04-03T16:16:00;11.40;90.50
65582;DHT22;52231;40.090;18.348;2023-04-03T16:18:31;11.30;90.50
65582;DHT22;52231;40.090;18.348;2023-04-03T16:21:04;11.30;90.50
65582;DHT22;52231;40.090;18.348;2023-04-03T16:23:35;11.30;90.50
65582;DHT22;52231;40.090;18.348;2023-04-03T16:26:09;11.30;90.60
65582;DHT22;52231;40.090;18.348;2023-04-03T16:28:39;11.30;90.70
65582;DHT22;52231;40.090;18.348;2023-04-03T16:31:08;11.30;90.70
65582;DHT22;52231;40.090;18.348;2023-04-03T16:33:41;11.20;90.80
65582;DHT22;52231;40.090;18.348;2023-04-03T16:36:11;11.20;90.90
65582;DHT22;52231;40.090;18.348;2023-04-03T16:38:45;11.20;91.00
65582;DHT22;52231;40.090;18.348;2023-04-03T16:41:16;11.30;91.00
65582;DHT22;52231;40.090;18.348;2023-04-03T16:43:45;11.30;91.10
65582;DHT22;52231;40.090;18.348;2023-04-03T16:46:14;11.30;91.10
65582;DHT22;52231;40.090;18.348;2023-04-03T16:48:43;11.30;91.10
65582;DHT22;52231;40.090;18.348;2023-04-03T16:51:16;11.30;91.10
65582;DHT22;52231;40.090;18.348;2023-04-03T16:53:50;11.30;91.10
65582;DHT22;52231;40.090;18.348;2023-04-03T16:56:20;11.40;91.10
65582;DHT22;52231;40.090;18.348;2023-04-03T16:58:50;11.30;91.10
65582;DHT22;52231;40.090;18.348;2023-04-03T17:01:21;11.40;91.10
65582;DHT22;52231;40.090;18.348;2023-04-03T17:03:50;11.30;91.10
65582;DHT22;52231;40.090;18.348;2023-04-03T17:06:20;11.40;91.10
65582;DHT22;52231;40.090;18.348;2023-04-03T17:08:53;11.30;91.10
65582;DHT22;52231;40.090;18.348;2023-04-03T17:11:31;11.30;91.10
65582;DHT22;52231;40.090;18.348;2023-04-03T17:14:03;11.30;91.10
65582;DHT22;52231;40.090;18.348;2023-04-03T17:16:39;11.30;91.10
65582;DHT22;52231;40.090;18.348;2023-04-03T17:19:08;11.30;91.10
65582;DHT22;52231;40.090;18.348;2023-04-03T17:21:40;11.30;91.10
65582;DHT22;52231;40.090;18.348;2023-04-03T17:24:10;11.30;91.10
65582;DHT22;52231;40.090;18.348;2023-04-03T17:26:42;11.20;91.10
65582;DHT22;52231;40.090;18.348;2023-04-03T17:29:12;11.20;91.10
65582;DHT22;52231;40.090;18.348;2023-04-03T17:31:41;11.20;91.20
65582;DHT22;52231;40.090;18.348;2023-04-03T17:34:10;11.20;91.20
65582;DHT22;52231;40.090;18.348;2023-04-03T17:36:40;11.30;91.10